sensor_id;sensor_type;location;lat;lon;timestamp;P1;durP1;ratioP1;P2;durP2;ratioP2
18104;SDS011;9179;50.968;3.134;2023-09-30T00:00:45;10.18;;;5.78;;
18104;SDS011;9179;50.968;3.134;2023-09-30T00:03:12;10.18;;;5.60;;
18104;SDS011;9179;50.968;3.134;2023-09-30T00:05:39;9.32;;;6.50;;
18104;SDS011;9179;50.968;3.134;2023-09-30T00:08:07;12.18;;;5.63;;
18104;SDS011;9179;50.968;3.134;2023-09-30T00:10:34;10.38;;;5.18;;
18104;SDS011;9179;50.968;3.134;2023-09-30T00:13:01;9.95;;;6.57;;
18104;SDS011;9179;50.968;3.134;2023-09-30T00:15:28;10.25;;;5.28;;
18104;SDS011;9179;50.968;3.134;2023-09-30T00:17:55;13.93;;;6.35;;
18104;SDS011;9179;50.968;3.134;2023-09-30T00:20:21;12.85;;;5.55;;
18104;SDS011;9179;50.968;3.134;2023-09-30T00:22:48;9.45;;;5.90;;
18104;SDS011;9179;50.968;3.134;2023-09-30T00:25:17;7.40;;;5.38;;
18104;SDS011;9179;50.968;3.134;2023-09-30T00:27:44;7.97;;;5.13;;
18104;SDS011;9179;50.968;3.134;2023-09-30T00:30:11;7.13;;;6.20;;
18104;SDS011;9179;50.968;3.134;2023-09-30T00:32:38;9.63;;;5.20;;
18104;SDS011;9179;50.968;3.134;2023-09-30T00:35:05;10.82;;;5.90;;
18104;SDS011;9179;50.968;3.134;2023-09-30T00:37:36;9.55;;;6.28;;
18104;SDS011;9179;50.968;3.134;2023-09-30T00:40:03;10.10;;;5.32;;
18104;SDS011;9179;50.968;3.134;2023-09-30T00:42:32;9.65;;;5.47;;
18104;SDS011;9179;50.968;3.134;2023-09-30T00:44:59;11.75;;;5.47;;
18104;SDS011;9179;50.968;3.134;2023-09-30T00:47:26;12.05;;;6.65;;
18104;SDS011;9179;50.968;3.134;2023-09-30T00:49:53;10.07;;;5.15;;
18104;SDS011;9179;50.968;3.134;2023-09-30T00:52:20;11.65;;;6.47;;
18104;SDS011;9179;50.968;3.134;2023-09-30T00:54:47;6.78;;;5.75;;
18104;SDS011;9179;50.968;3.134;2023-09-30T00:57:16;12.13;;;5.68;;
18104;SDS011;9179;50.968;3.134;2023-09-30T00:59:47;12.25;;;5.68;;
18104;SDS011;9179;50.968;3.134;2023-09-30T01:02:16;10.02;;;5.30;;
18104;SDS011;9179;50.968;3.134;2023-09-30T01:04:44;9.85;;;5.65;;
18104;SDS011;9179;50.968;3.134;2023-09-30T01:07:11;8.43;;;4.80;;
18104;SDS011;9179;50.968;3.134;2023-09-30T01:09:38;9.60;;;7.13;;
18104;SDS011;9179;50.968;3.134;2023-09-30T01:12:05;7.95;;;5.13;;
18104;SDS011;9179;50.968;3.134;2023-09-30T01:14:33;11.48;;;5.68;;
18104;SDS011;9179;50.968;3.134;2023-09-30T01:17:04;14.75;;;7.15;;
18104;SDS011;9179;50.968;3.134;2023-09-30T01:19:33;13.60;;;6.40;;
18104;SDS011;9179;50.968;3.134;2023-09-30T01:22:02;8.73;;;5.32;;
18104;SDS011;9179;50.968;3.134;2023-09-30T01:24:31;9.52;;;5.18;;
18104;SDS011;9179;50.968;3.134;2023-09-30T01:27:04;10.25;;;5.70;;
18104;SDS011;9179;50.968;3.134;2023-09-30T01:29:31;9.30;;;6.03;;
18104;SDS011;9179;50.968;3.134;2023-09-30T01:31:57;9.45;;;4.68;;
18104;SDS011;9179;50.968;3.134;2023-09-30T01:34:25;11.18;;;5.90;;
18104;SDS011;9179;50.968;3.134;2023-09-30T01:36:52;9.13;;;5.07;;
18104;SDS011;9179;50.968;3.134;2023-09-30T01:39:21;14.23;;;5.88;;
18104;SDS011;9179;50.968;3.134;2023-09-30T01:41:48;8.38;;;5.43;;
18104;SDS011;9179;50.968;3.134;2023-09-30T01:44:15;11.35;;;5.07;;
18104;SDS011;9179;50.968;3.134;2023-09-30T01:46:42;11.50;;;5.07;;
18104;SDS011;9179;50.968;3.134;2023-09-30T01:49:08;5.90;;;4.47;;
18104;SDS011;9179;50.968;3.134;2023-09-30T01:51:36;9.07;;;5.18;;
18104;SDS011;9179;50.968;3.134;2023-09-30T01:54:04;8.05;;;5.20;;
18104;SDS011;9179;50.968;3.134;2023-09-30T01:56:32;6.95;;;5.47;;
18104;SDS011;9179;50.968;3.134;2023-09-30T01:58:59;7.53;;;4.47;;
18104;SDS011;9179;50.968;3.134;2023-09-30T02:01:26;8.52;;;4.90;;
18104;SDS011;9179;50.968;3.134;2023-09-30T02:03:53;8.10;;;4.15;;
18104;SDS011;9179;50.968;3.134;2023-09-30T02:06:20;7.78;;;5.13;;
18104;SDS011;9179;50.968;3.134;2023-09-30T02:08:47;7.15;;;4.72;;
18104;SDS011;9179;50.968;3.134;2023-09-30T02:11:14;8.70;;;4.80;;
18104;SDS011;9179;50.968;3.134;2023-09-30T02:13:43;8.20;;;5.88;;
18104;SDS011;9179;50.968;3.134;2023-09-30T02:16:13;7.93;;;5.03;;
18104;SDS011;9179;50.968;3.134;2023-09-30T02:18:42;8.57;;;5.38;;
18104;SDS011;9179;50.968;3.134;2023-09-30T02:21:10;9.20;;;4.72;;
18104;SDS011;9179;50.968;3.134;2023-09-30T02:23:37;8.85;;;5.13;;
18104;SDS011;9179;50.968;3.134;2023-09-30T02:26:04;8.05;;;4.97;;
18104;SDS011;9179;50.968;3.134;2023-09-30T02:28:31;8.90;;;4.97;;
18104;SDS011;9179;50.968;3.134;2023-09-30T02:31:00;5.75;;;5.15;;
18104;SDS011;9179;50.968;3.134;2023-09-30T02:33:27;7.63;;;5.53;;
18104;SDS011;9179;50.968;3.134;2023-09-30T02:35:54;10.13;;;5.30;;
18104;SDS011;9179;50.968;3.134;2023-09-30T02:38:22;7.07;;;5.43;;
18104;SDS011;9179;50.968;3.134;2023-09-30T02:40:50;12.05;;;5.80;;
18104;SDS011;9179;50.968;3.134;2023-09-30T02:43:17;6.03;;;5.10;;
18104;SDS011;9179;50.968;3.134;2023-09-30T02:45:45;9.43;;;5.25;;
18104;SDS011;9179;50.968;3.134;2023-09-30T02:48:13;6.85;;;5.43;;
18104;SDS011;9179;50.968;3.134;2023-09-30T02:50:41;6.45;;;5.75;;
18104;SDS011;9179;50.968;3.134;2023-09-30T02:53:10;7.28;;;5.97;;
18104;SDS011;9179;50.968;3.134;2023-09-30T02:55:37;8.70;;;5.65;;
18104;SDS011;9179;50.968;3.134;2023-09-30T02:58:04;8.48;;;6.13;;
18104;SDS011;9179;50.968;3.134;2023-09-30T03:00:31;8.23;;;6.05;;
18104;SDS011;9179;50.968;3.134;2023-09-30T03:02:59;10.10;;;4.90;;
18104;SDS011;9179;50.968;3.134;2023-09-30T03:05:29;9.13;;;5.28;;
18104;SDS011;9179;50.968;3.134;2023-09-30T03:07:58;13.88;;;6.65;;
18104;SDS011;9179;50.968;3.134;2023-09-30T03:10:25;9.07;;;6.03;;
18104;SDS011;9179;50.968;3.134;2023-09-30T03:12:52;8.27;;;6.00;;
18104;SDS011;9179;50.968;3.134;2023-09-30T03:15:20;8.48;;;6.57;;
18104;SDS011;9179;50.968;3.134;2023-09-30T03:17:47;11.88;;;6.80;;
18104;SDS011;9179;50.968;3.134;2023-09-30T03:20:14;12.07;;;6.80;;
18104;SDS011;9179;50.968;3.134;2023-09-30T03:22:45;8.77;;;6.05;;
18104;SDS011;9179;50.968;3.134;2023-09-30T03:25:13;9.15;;;6.55;;
18104;SDS011;9179;50.968;3.134;2023-09-30T03:27:42;10.55;;;6.90;;
18104;SDS011;9179;50.968;3.134;2023-09-30T03:30:10;8.15;;;5.45;;
18104;SDS011;9179;50.968;3.134;2023-09-30T03:32:38;7.47;;;4.90;;
18104;SDS011;9179;50.968;3.134;2023-09-30T03:35:05;13.15;;;6.60;;
18104;SDS011;9179;50.968;3.134;2023-09-30T03:37:35;7.97;;;5.72;;
18104;SDS011;9179;50.968;3.134;2023-09-30T03:40:04;8.57;;;6.30;;
18104;SDS011;9179;50.968;3.134;2023-09-30T03:42:38;7.20;;;6.18;;
18104;SDS011;9179;50.968;3.134;2023-09-30T03:45:07;10.40;;;7.05;;
18104;SDS011;9179;50.968;3.134;2023-09-30T03:47:35;9.40;;;6.90;;
18104;SDS011;9179;50.968;3.134;2023-09-30T03:50:03;8.85;;;6.55;;
18104;SDS011;9179;50.968;3.134;2023-09-30T03:52:32;8.35;;;7.32;;
18104;SDS011;9179;50.968;3.134;2023-09-30T03:55:00;11.07;;;6.72;;
18104;SDS011;9179;50.968;3.134;2023-09-30T03:57:31;10.57;;;7.13;;
18104;SDS011;9179;50.968;3.134;2023-09-30T03:59:59;6.50;;;5.90;;
18104;SDS011;9179;50.968;3.134;2023-09-30T04:02:26;8.57;;;5.75;;
18104;SDS011;9179;50.968;3.134;2023-09-30T04:04:53;10.20;;;6.25;;
18104;SDS011;9179;50.968;3.134;2023-09-30T04:07:21;9.07;;;6.60;;
18104;SDS011;9179;50.968;3.134;2023-09-30T04:09:48;10.63;;;7.28;;
18104;SDS011;9179;50.968;3.134;2023-09-30T04:12:15;10.88;;;6.53;;
18104;SDS011;9179;50.968;3.134;2023-09-30T04:14:43;9.32;;;6.25;;
18104;SDS011;9179;50.968;3.134;2023-09-30T04:17:10;9.55;;;7.03;;
18104;SDS011;9179;50.968;3.134;2023-09-30T04:19:37;10.82;;;5.93;;
18104;SDS011;9179;50.968;3.134;2023-09-30T04:22:03;6.65;;;5.95;;
18104;SDS011;9179;50.968;3.134;2023-09-30T04:24:30;7.20;;;6.03;;
18104;SDS011;9179;50.968;3.134;2023-09-30T04:26:57;10.45;;;6.78;;
18104;SDS011;9179;50.968;3.134;2023-09-30T04:29:28;14.02;;;6.40;;
18104;SDS011;9179;50.968;3.134;2023-09-30T04:31:56;13.20;;;6.60;;
18104;SDS011;9179;50.968;3.134;2023-09-30T04:34:23;10.25;;;6.68;;
18104;SDS011;9179;50.968;3.134;2023-09-30T04:36:52;7.63;;;5.55;;
18104;SDS011;9179;50.968;3.134;2023-09-30T04:39:19;10.63;;;6.40;;
18104;SDS011;9179;50.968;3.134;2023-09-30T04:41:46;11.40;;;6.32;;
18104;SDS011;9179;50.968;3.134;2023-09-30T04:44:13;10.18;;;7.55;;
18104;SDS011;9179;50.968;3.134;2023-09-30T04:46:40;7.22;;;6.13;;
18104;SDS011;9179;50.968;3.134;2023-09-30T04:49:12;8.32;;;5.90;;
18104;SDS011;9179;50.968;3.134;2023-09-30T04:51:41;9.77;;;6.75;;
18104;SDS011;9179;50.968;3.134;2023-09-30T04:54:08;9.43;;;6.03;;
18104;SDS011;9179;50.968;3.134;2023-09-30T04:56:35;7.85;;;5.80;;
18104;SDS011;9179;50.968;3.134;2023-09-30T04:59:03;8.95;;;6.18;;
18104;SDS011;9179;50.968;3.134;2023-09-30T05:01:31;9.18;;;7.78;;
18104;SDS011;9179;50.968;3.134;2023-09-30T05:03:58;9.52;;;6.18;;
18104;SDS011;9179;50.968;3.134;2023-09-30T05:06:26;15.73;;;8.35;;
18104;SDS011;9179;50.968;3.134;2023-09-30T05:08:53;8.30;;;6.40;;
18104;SDS011;9179;50.968;3.134;2023-09-30T05:11:21;10.45;;;6.68;;
18104;SDS011;9179;50.968;3.134;2023-09-30T05:13:48;7.93;;;5.78;;
18104;SDS011;9179;50.968;3.134;2023-09-30T05:16:16;13.00;;;6.78;;
18104;SDS011;9179;50.968;3.134;2023-09-30T05:18:43;10.60;;;6.20;;
18104;SDS011;9179;50.968;3.134;2023-09-30T05:21:10;9.02;;;6.75;;
18104;SDS011;9179;50.968;3.134;2023-09-30T05:23:38;9.18;;;6.00;;
18104;SDS011;9179;50.968;3.134;2023-09-30T05:26:05;10.73;;;6.45;;
18104;SDS011;9179;50.968;3.134;2023-09-30T05:28:32;14.73;;;6.85;;
18104;SDS011;9179;50.968;3.134;2023-09-30T05:30:59;10.77;;;6.30;;
18104;SDS011;9179;50.968;3.134;2023-09-30T05:33:27;9.98;;;7.22;;
18104;SDS011;9179;50.968;3.134;2023-09-30T05:35:54;9.80;;;6.18;;
18104;SDS011;9179;50.968;3.134;2023-09-30T05:38:21;8.85;;;6.13;;
18104;SDS011;9179;50.968;3.134;2023-09-30T05:40:49;8.82;;;7.13;;
18104;SDS011;9179;50.968;3.134;2023-09-30T05:43:16;11.85;;;7.78;;
18104;SDS011;9179;50.968;3.134;2023-09-30T05:45:44;9.13;;;6.22;;
18104;SDS011;9179;50.968;3.134;2023-09-30T05:48:14;8.05;;;6.45;;
18104;SDS011;9179;50.968;3.134;2023-09-30T05:50:41;8.70;;;5.95;;
18104;SDS011;9179;50.968;3.134;2023-09-30T05:53:09;13.02;;;7.85;;
18104;SDS011;9179;50.968;3.134;2023-09-30T05:55:37;13.05;;;7.22;;
18104;SDS011;9179;50.968;3.134;2023-09-30T05:58:07;9.73;;;6.15;;
18104;SDS011;9179;50.968;3.134;2023-09-30T06:00:35;10.88;;;6.68;;
18104;SDS011;9179;50.968;3.134;2023-09-30T06:03:03;9.82;;;6.10;;
18104;SDS011;9179;50.968;3.134;2023-09-30T06:05:31;8.40;;;6.30;;
18104;SDS011;9179;50.968;3.134;2023-09-30T06:07:59;8.85;;;6.60;;
18104;SDS011;9179;50.968;3.134;2023-09-30T06:10:30;11.50;;;6.68;;
18104;SDS011;9179;50.968;3.134;2023-09-30T06:12:57;7.63;;;5.80;;
18104;SDS011;9179;50.968;3.134;2023-09-30T06:15:26;11.50;;;7.10;;
18104;SDS011;9179;50.968;3.134;2023-09-30T06:17:53;10.00;;;7.03;;
18104;SDS011;9179;50.968;3.134;2023-09-30T06:20:21;9.95;;;7.80;;
18104;SDS011;9179;50.968;3.134;2023-09-30T06:22:51;14.82;;;8.25;;
18104;SDS011;9179;50.968;3.134;2023-09-30T06:25:18;11.38;;;8.25;;
18104;SDS011;9179;50.968;3.134;2023-09-30T06:27:48;12.43;;;8.57;;
18104;SDS011;9179;50.968;3.134;2023-09-30T06:30:16;13.45;;;8.73;;
18104;SDS011;9179;50.968;3.134;2023-09-30T06:32:46;9.15;;;7.85;;
18104;SDS011;9179;50.968;3.134;2023-09-30T06:35:13;16.92;;;11.55;;
18104;SDS011;9179;50.968;3.134;2023-09-30T06:37:40;13.90;;;8.80;;
18104;SDS011;9179;50.968;3.134;2023-09-30T06:40:08;12.68;;;9.00;;
18104;SDS011;9179;50.968;3.134;2023-09-30T06:42:37;14.65;;;9.00;;
18104;SDS011;9179;50.968;3.134;2023-09-30T06:45:05;14.95;;;9.70;;
18104;SDS011;9179;50.968;3.134;2023-09-30T06:47:35;11.70;;;8.50;;
18104;SDS011;9179;50.968;3.134;2023-09-30T06:50:04;12.00;;;8.75;;
18104;SDS011;9179;50.968;3.134;2023-09-30T06:52:37;13.48;;;9.43;;
18104;SDS011;9179;50.968;3.134;2023-09-30T06:55:06;15.00;;;8.30;;
18104;SDS011;9179;50.968;3.134;2023-09-30T06:57:34;13.70;;;9.73;;
18104;SDS011;9179;50.968;3.134;2023-09-30T07:00:04;10.10;;;8.02;;
18104;SDS011;9179;50.968;3.134;2023-09-30T07:02:33;12.65;;;8.52;;
18104;SDS011;9179;50.968;3.134;2023-09-30T07:05:01;13.32;;;8.85;;
18104;SDS011;9179;50.968;3.134;2023-09-30T07:07:31;11.88;;;8.15;;
18104;SDS011;9179;50.968;3.134;2023-09-30T07:09:57;10.73;;;8.45;;
18104;SDS011;9179;50.968;3.134;2023-09-30T07:12:24;16.35;;;10.57;;
18104;SDS011;9179;50.968;3.134;2023-09-30T07:14:51;11.45;;;9.55;;
18104;SDS011;9179;50.968;3.134;2023-09-30T07:17:19;13.38;;;9.98;;
18104;SDS011;9179;50.968;3.134;2023-09-30T07:19:45;14.77;;;10.02;;
18104;SDS011;9179;50.968;3.134;2023-09-30T07:22:13;12.32;;;8.70;;
18104;SDS011;9179;50.968;3.134;2023-09-30T07:24:41;13.75;;;8.85;;
18104;SDS011;9179;50.968;3.134;2023-09-30T07:27:08;12.90;;;8.85;;
18104;SDS011;9179;50.968;3.134;2023-09-30T07:29:35;11.50;;;8.73;;
18104;SDS011;9179;50.968;3.134;2023-09-30T07:32:02;11.90;;;8.98;;
18104;SDS011;9179;50.968;3.134;2023-09-30T07:34:29;12.00;;;8.75;;
18104;SDS011;9179;50.968;3.134;2023-09-30T07:36:56;8.85;;;7.57;;
18104;SDS011;9179;50.968;3.134;2023-09-30T07:39:23;10.23;;;6.97;;
18104;SDS011;9179;50.968;3.134;2023-09-30T07:41:51;8.95;;;6.90;;
18104;SDS011;9179;50.968;3.134;2023-09-30T07:44:18;8.63;;;7.30;;
18104;SDS011;9179;50.968;3.134;2023-09-30T07:46:45;8.57;;;6.88;;
18104;SDS011;9179;50.968;3.134;2023-09-30T07:49:12;10.82;;;7.85;;
18104;SDS011;9179;50.968;3.134;2023-09-30T07:51:40;12.60;;;7.18;;
18104;SDS011;9179;50.968;3.134;2023-09-30T07:54:06;8.75;;;7.15;;
18104;SDS011;9179;50.968;3.134;2023-09-30T07:56:33;10.50;;;7.05;;
18104;SDS011;9179;50.968;3.134;2023-09-30T07:59:02;9.10;;;7.18;;
18104;SDS011;9179;50.968;3.134;2023-09-30T08:01:30;9.10;;;7.55;;
18104;SDS011;9179;50.968;3.134;2023-09-30T08:03:57;13.15;;;8.07;;
18104;SDS011;9179;50.968;3.134;2023-09-30T08:06:24;10.07;;;7.93;;
18104;SDS011;9179;50.968;3.134;2023-09-30T08:08:50;9.63;;;7.88;;
18104;SDS011;9179;50.968;3.134;2023-09-30T08:11:17;9.07;;;7.55;;
18104;SDS011;9179;50.968;3.134;2023-09-30T08:13:45;10.77;;;7.93;;
18104;SDS011;9179;50.968;3.134;2023-09-30T08:16:14;10.60;;;7.40;;
18104;SDS011;9179;50.968;3.134;2023-09-30T08:18:41;10.65;;;7.07;;
18104;SDS011;9179;50.968;3.134;2023-09-30T08:21:08;13.30;;;7.97;;
18104;SDS011;9179;50.968;3.134;2023-09-30T08:23:37;10.93;;;8.13;;
18104;SDS011;9179;50.968;3.134;2023-09-30T08:26:04;11.80;;;7.88;;
18104;SDS011;9179;50.968;3.134;2023-09-30T08:28:31;10.30;;;7.47;;
18104;SDS011;9179;50.968;3.134;2023-09-30T08:31:01;10.43;;;7.30;;
18104;SDS011;9179;50.968;3.134;2023-09-30T08:33:31;11.65;;;7.75;;
18104;SDS011;9179;50.968;3.134;2023-09-30T08:36:01;10.82;;;7.88;;
18104;SDS011;9179;50.968;3.134;2023-09-30T08:38:32;9.63;;;8.13;;
18104;SDS011;9179;50.968;3.134;2023-09-30T08:40:59;10.00;;;6.88;;
18104;SDS011;9179;50.968;3.134;2023-09-30T08:43:27;10.85;;;7.70;;
18104;SDS011;9179;50.968;3.134;2023-09-30T08:45:56;11.52;;;7.35;;
18104;SDS011;9179;50.968;3.134;2023-09-30T08:48:23;9.23;;;6.32;;
18104;SDS011;9179;50.968;3.134;2023-09-30T08:50:53;9.40;;;6.40;;
18104;SDS011;9179;50.968;3.134;2023-09-30T08:53:21;9.80;;;6.65;;
18104;SDS011;9179;50.968;3.134;2023-09-30T08:55:49;9.73;;;5.90;;
18104;SDS011;9179;50.968;3.134;2023-09-30T08:58:20;6.15;;;4.90;;
18104;SDS011;9179;50.968;3.134;2023-09-30T09:00:50;10.65;;;6.35;;
18104;SDS011;9179;50.968;3.134;2023-09-30T09:03:18;6.50;;;5.40;;
18104;SDS011;9179;50.968;3.134;2023-09-30T09:05:45;8.73;;;5.38;;
18104;SDS011;9179;50.968;3.134;2023-09-30T09:08:13;6.30;;;4.68;;
18104;SDS011;9179;50.968;3.134;2023-09-30T09:10:54;9.45;;;5.57;;
18104;SDS011;9179;50.968;3.134;2023-09-30T09:13:22;9.27;;;5.35;;
18104;SDS011;9179;50.968;3.134;2023-09-30T09:15:49;11.90;;;5.97;;
18104;SDS011;9179;50.968;3.134;2023-09-30T09:18:31;10.07;;;6.45;;
18104;SDS011;9179;50.968;3.134;2023-09-30T09:21:08;7.70;;;5.60;;
18104;SDS011;9179;50.968;3.134;2023-09-30T09:23:41;8.43;;;5.93;;
18104;SDS011;9179;50.968;3.134;2023-09-30T09:26:09;7.30;;;4.78;;
18104;SDS011;9179;50.968;3.134;2023-09-30T09:28:36;7.90;;;5.03;;
18104;SDS011;9179;50.968;3.134;2023-09-30T09:33:49;7.13;;;5.38;;
18104;SDS011;9179;50.968;3.134;2023-09-30T09:36:18;8.25;;;4.65;;
18104;SDS011;9179;50.968;3.134;2023-09-30T09:38:48;8.73;;;4.97;;
18104;SDS011;9179;50.968;3.134;2023-09-30T09:41:18;10.57;;;5.30;;
18104;SDS011;9179;50.968;3.134;2023-09-30T09:43:46;8.88;;;4.38;;
18104;SDS011;9179;50.968;3.134;2023-09-30T09:46:15;7.47;;;4.22;;
18104;SDS011;9179;50.968;3.134;2023-09-30T09:48:44;10.13;;;5.43;;
18104;SDS011;9179;50.968;3.134;2023-09-30T09:51:12;10.43;;;4.95;;
18104;SDS011;9179;50.968;3.134;2023-09-30T09:53:40;8.00;;;4.70;;
18104;SDS011;9179;50.968;3.134;2023-09-30T09:56:10;10.20;;;5.43;;
18104;SDS011;9179;50.968;3.134;2023-09-30T09:58:39;5.90;;;4.30;;
18104;SDS011;9179;50.968;3.134;2023-09-30T10:01:07;9.73;;;5.00;;
18104;SDS011;9179;50.968;3.134;2023-09-30T10:03:36;8.20;;;4.65;;
18104;SDS011;9179;50.968;3.134;2023-09-30T10:06:04;9.77;;;5.35;;
18104;SDS011;9179;50.968;3.134;2023-09-30T10:08:35;7.47;;;4.88;;
18104;SDS011;9179;50.968;3.134;2023-09-30T10:11:06;8.43;;;5.13;;
18104;SDS011;9179;50.968;3.134;2023-09-30T10:13:54;7.50;;;5.60;;
18104;SDS011;9179;50.968;3.134;2023-09-30T10:19:15;10.48;;;5.68;;
18104;SDS011;9179;50.968;3.134;2023-09-30T10:24:54;9.48;;;5.68;;
18104;SDS011;9179;50.968;3.134;2023-09-30T10:27:28;9.05;;;5.20;;
18104;SDS011;9179;50.968;3.134;2023-09-30T10:30:05;7.32;;;4.78;;
18104;SDS011;9179;50.968;3.134;2023-09-30T10:35:42;8.45;;;4.82;;
18104;SDS011;9179;50.968;3.134;2023-09-30T10:41:08;9.50;;;5.88;;
18104;SDS011;9179;50.968;3.134;2023-09-30T10:43:37;7.20;;;4.78;;
18104;SDS011;9179;50.968;3.134;2023-09-30T10:52:01;6.47;;;3.95;;
18104;SDS011;9179;50.968;3.134;2023-09-30T10:54:28;6.45;;;3.50;;
18104;SDS011;9179;50.968;3.134;2023-09-30T10:56:58;7.40;;;4.13;;
18104;SDS011;9179;50.968;3.134;2023-09-30T10:59:29;8.27;;;4.22;;
18104;SDS011;9179;50.968;3.134;2023-09-30T11:01:57;5.72;;;3.53;;
18104;SDS011;9179;50.968;3.134;2023-09-30T11:04:24;8.13;;;3.88;;
18104;SDS011;9179;50.968;3.134;2023-09-30T11:06:53;5.50;;;3.40;;
18104;SDS011;9179;50.968;3.134;2023-09-30T11:09:21;7.07;;;3.38;;
18104;SDS011;9179;50.968;3.134;2023-09-30T11:11:49;4.18;;;2.70;;
18104;SDS011;9179;50.968;3.134;2023-09-30T11:14:20;4.75;;;2.60;;
18104;SDS011;9179;50.968;3.134;2023-09-30T11:16:49;6.15;;;3.17;;
18104;SDS011;9179;50.968;3.134;2023-09-30T11:19:18;4.53;;;2.67;;
18104;SDS011;9179;50.968;3.134;2023-09-30T11:21:47;6.63;;;3.15;;
18104;SDS011;9179;50.968;3.134;2023-09-30T11:24:15;7.15;;;2.80;;
18104;SDS011;9179;50.968;3.134;2023-09-30T11:26:43;6.30;;;2.92;;
18104;SDS011;9179;50.968;3.134;2023-09-30T11:29:10;5.50;;;2.22;;
18104;SDS011;9179;50.968;3.134;2023-09-30T11:31:38;6.75;;;2.17;;
18104;SDS011;9179;50.968;3.134;2023-09-30T11:34:05;2.85;;;1.75;;
18104;SDS011;9179;50.968;3.134;2023-09-30T11:36:35;4.88;;;2.50;;
18104;SDS011;9179;50.968;3.134;2023-09-30T11:39:03;5.50;;;2.10;;
18104;SDS011;9179;50.968;3.134;2023-09-30T11:41:34;4.82;;;3.08;;
18104;SDS011;9179;50.968;3.134;2023-09-30T11:44:04;6.70;;;2.53;;
18104;SDS011;9179;50.968;3.134;2023-09-30T11:46:33;5.40;;;2.63;;
18104;SDS011;9179;50.968;3.134;2023-09-30T11:49:23;5.85;;;2.25;;
18104;SDS011;9179;50.968;3.134;2023-09-30T11:51:53;5.45;;;2.40;;
18104;SDS011;9179;50.968;3.134;2023-09-30T11:54:20;9.05;;;2.67;;
18104;SDS011;9179;50.968;3.134;2023-09-30T11:56:48;7.88;;;3.05;;
18104;SDS011;9179;50.968;3.134;2023-09-30T11:59:15;4.10;;;2.00;;
18104;SDS011;9179;50.968;3.134;2023-09-30T12:01:44;4.57;;;2.25;;
18104;SDS011;9179;50.968;3.134;2023-09-30T12:04:13;6.43;;;2.72;;
18104;SDS011;9179;50.968;3.134;2023-09-30T12:06:42;4.68;;;3.00;;
18104;SDS011;9179;50.968;3.134;2023-09-30T12:09:10;4.70;;;2.40;;
18104;SDS011;9179;50.968;3.134;2023-09-30T12:11:39;5.60;;;1.77;;
18104;SDS011;9179;50.968;3.134;2023-09-30T12:14:09;7.93;;;2.13;;
18104;SDS011;9179;50.968;3.134;2023-09-30T12:16:39;3.33;;;2.50;;
18104;SDS011;9179;50.968;3.134;2023-09-30T12:19:06;5.03;;;2.15;;
18104;SDS011;9179;50.968;3.134;2023-09-30T12:21:33;4.85;;;2.10;;
18104;SDS011;9179;50.968;3.134;2023-09-30T12:24:01;4.38;;;2.38;;
18104;SDS011;9179;50.968;3.134;2023-09-30T12:26:31;5.93;;;2.95;;
18104;SDS011;9179;50.968;3.134;2023-09-30T12:28:58;5.35;;;2.45;;
18104;SDS011;9179;50.968;3.134;2023-09-30T12:31:25;5.90;;;2.60;;
18104;SDS011;9179;50.968;3.134;2023-09-30T12:33:52;3.17;;;2.33;;
18104;SDS011;9179;50.968;3.134;2023-09-30T12:36:19;8.68;;;2.38;;
18104;SDS011;9179;50.968;3.134;2023-09-30T12:38:47;5.53;;;2.10;;
18104;SDS011;9179;50.968;3.134;2023-09-30T12:41:14;5.07;;;2.33;;
18104;SDS011;9179;50.968;3.134;2023-09-30T12:43:45;6.53;;;2.72;;
18104;SDS011;9179;50.968;3.134;2023-09-30T12:46:12;7.53;;;3.50;;
18104;SDS011;9179;50.968;3.134;2023-09-30T12:48:39;5.88;;;2.72;;
18104;SDS011;9179;50.968;3.134;2023-09-30T12:51:06;5.28;;;2.40;;
18104;SDS011;9179;50.968;3.134;2023-09-30T12:53:35;4.70;;;2.67;;
18104;SDS011;9179;50.968;3.134;2023-09-30T12:56:02;6.90;;;3.08;;
18104;SDS011;9179;50.968;3.134;2023-09-30T12:58:29;6.28;;;2.80;;
18104;SDS011;9179;50.968;3.134;2023-09-30T13:00:57;4.55;;;2.30;;
18104;SDS011;9179;50.968;3.134;2023-09-30T13:03:24;6.60;;;2.22;;
18104;SDS011;9179;50.968;3.134;2023-09-30T13:05:51;9.10;;;2.15;;
18104;SDS011;9179;50.968;3.134;2023-09-30T13:08:19;4.25;;;1.98;;
18104;SDS011;9179;50.968;3.134;2023-09-30T13:10:46;4.25;;;2.08;;
18104;SDS011;9179;50.968;3.134;2023-09-30T13:13:15;4.93;;;2.30;;
18104;SDS011;9179;50.968;3.134;2023-09-30T13:15:42;4.55;;;1.95;;
18104;SDS011;9179;50.968;3.134;2023-09-30T13:18:11;5.05;;;2.35;;
18104;SDS011;9179;50.968;3.134;2023-09-30T13:20:38;6.40;;;2.50;;
18104;SDS011;9179;50.968;3.134;2023-09-30T13:23:05;6.60;;;2.40;;
18104;SDS011;9179;50.968;3.134;2023-09-30T13:25:31;5.07;;;2.10;;
18104;SDS011;9179;50.968;3.134;2023-09-30T13:27:57;6.13;;;2.53;;
18104;SDS011;9179;50.968;3.134;2023-09-30T13:30:24;4.35;;;2.00;;
18104;SDS011;9179;50.968;3.134;2023-09-30T13:32:51;4.10;;;2.50;;
18104;SDS011;9179;50.968;3.134;2023-09-30T13:35:20;5.38;;;2.78;;
18104;SDS011;9179;50.968;3.134;2023-09-30T13:37:47;5.55;;;2.45;;
18104;SDS011;9179;50.968;3.134;2023-09-30T13:40:13;4.68;;;2.40;;
18104;SDS011;9179;50.968;3.134;2023-09-30T13:42:40;5.28;;;2.88;;
18104;SDS011;9179;50.968;3.134;2023-09-30T13:45:08;4.72;;;2.05;;
18104;SDS011;9179;50.968;3.134;2023-09-30T13:47:35;6.22;;;2.50;;
18104;SDS011;9179;50.968;3.134;2023-09-30T13:50:03;4.35;;;2.08;;
18104;SDS011;9179;50.968;3.134;2023-09-30T13:52:33;4.82;;;2.88;;
18104;SDS011;9179;50.968;3.134;2023-09-30T13:55:00;5.72;;;2.42;;
18104;SDS011;9179;50.968;3.134;2023-09-30T13:57:28;8.18;;;3.03;;
18104;SDS011;9179;50.968;3.134;2023-09-30T13:59:55;8.50;;;2.40;;
18104;SDS011;9179;50.968;3.134;2023-09-30T14:02:22;7.20;;;2.95;;
18104;SDS011;9179;50.968;3.134;2023-09-30T14:04:50;6.63;;;2.75;;
18104;SDS011;9179;50.968;3.134;2023-09-30T14:07:18;6.53;;;2.53;;
18104;SDS011;9179;50.968;3.134;2023-09-30T14:09:46;6.53;;;2.65;;
18104;SDS011;9179;50.968;3.134;2023-09-30T14:12:13;7.13;;;2.83;;
18104;SDS011;9179;50.968;3.134;2023-09-30T14:14:40;8.25;;;2.20;;
18104;SDS011;9179;50.968;3.134;2023-09-30T14:17:07;8.23;;;3.20;;
18104;SDS011;9179;50.968;3.134;2023-09-30T14:19:36;6.00;;;2.88;;
18104;SDS011;9179;50.968;3.134;2023-09-30T14:22:03;8.73;;;3.13;;
18104;SDS011;9179;50.968;3.134;2023-09-30T14:24:31;5.22;;;3.05;;
18104;SDS011;9179;50.968;3.134;2023-09-30T14:27:00;5.68;;;2.45;;
18104;SDS011;9179;50.968;3.134;2023-09-30T14:29:28;6.78;;;2.83;;
18104;SDS011;9179;50.968;3.134;2023-09-30T14:31:55;4.30;;;2.33;;
18104;SDS011;9179;50.968;3.134;2023-09-30T14:34:22;4.40;;;2.00;;
18104;SDS011;9179;50.968;3.134;2023-09-30T14:36:49;4.10;;;2.47;;
18104;SDS011;9179;50.968;3.134;2023-09-30T14:39:16;8.55;;;2.95;;
18104;SDS011;9179;50.968;3.134;2023-09-30T14:41:43;7.07;;;2.75;;
18104;SDS011;9179;50.968;3.134;2023-09-30T14:44:12;6.05;;;3.33;;
18104;SDS011;9179;50.968;3.134;2023-09-30T14:46:39;5.50;;;2.75;;
18104;SDS011;9179;50.968;3.134;2023-09-30T14:49:07;7.90;;;3.13;;
18104;SDS011;9179;50.968;3.134;2023-09-30T14:51:34;5.43;;;2.80;;
18104;SDS011;9179;50.968;3.134;2023-09-30T14:54:01;5.80;;;2.92;;
18104;SDS011;9179;50.968;3.134;2023-09-30T14:56:30;8.00;;;3.10;;
18104;SDS011;9179;50.968;3.134;2023-09-30T14:58:57;5.95;;;2.55;;
18104;SDS011;9179;50.968;3.134;2023-09-30T15:01:26;6.15;;;2.83;;
18104;SDS011;9179;50.968;3.134;2023-09-30T15:03:54;7.38;;;3.15;;
18104;SDS011;9179;50.968;3.134;2023-09-30T15:06:21;6.00;;;3.08;;
18104;SDS011;9179;50.968;3.134;2023-09-30T15:08:49;6.22;;;2.65;;
18104;SDS011;9179;50.968;3.134;2023-09-30T15:11:16;6.10;;;2.78;;
18104;SDS011;9179;50.968;3.134;2023-09-30T15:13:43;6.78;;;3.00;;
18104;SDS011;9179;50.968;3.134;2023-09-30T15:16:14;7.05;;;2.63;;
18104;SDS011;9179;50.968;3.134;2023-09-30T15:18:44;7.20;;;3.25;;
18104;SDS011;9179;50.968;3.134;2023-09-30T15:21:12;6.05;;;2.65;;
18104;SDS011;9179;50.968;3.134;2023-09-30T15:23:39;7.20;;;3.08;;